Terminal Aerodrome Forecast
Issued by NWS

Home | Current Version | Previous Version | Text Only | Print | Product List | Glossary On
Versions: 1 2 3 4 5 6 7 8 9 10 11 12
853
FTUS44 KLIX 251139
TAFGPT
TAF
KGPT 251139Z 2512/2612 32004KT P6SM FEW200
     FM251800 19005KT P6SM SKC
     FM252330 VRB03KT P6SM SKC=

USA.gov is the U.S. government's official web portal to all federal, state and local government web resources and services.